Time;durP1;ratioP1;P1;durP2;ratioP2;P2;SDS_P1;SDS_P2;PMS_P1;PMS_P2;Temp;Humidity;BMP_temperature;BMP_pressure;BME280_temperature;BME280_humidity;BME280_pressure;Samples;Min_cycle;Max_cycle;Signal;HPM_P1;HPM_P2
2021/07/16 00:00:53;;;;;;;2.42;0.50;;;;;;;;;;5009998;28;20439;-72
2021/07/16 00:03:18;;;;;;;2.45;0.55;;;;;;;;;;5011641;28;20030;-72
2021/07/16 00:05:43;;;;;;;1.25;0.40;;;;;;;;;;5008664;28;20046;-72
2021/07/16 00:08:09;;;;;;;1.17;0.32;;;;;;;;;;5009761;28;20022;-72
2021/07/16 00:10:34;;;;;;;4.38;0.40;;;;;;;;;;5009648;28;20164;-71
2021/07/16 00:13:00;;;;;;;1.38;0.45;;;;;;;;;;5009500;28;20533;-72
2021/07/16 00:15:25;;;;;;;0.57;0.50;;;;;;;;;;5010692;28;20022;-73
2021/07/16 00:17:50;;;;;;;1.02;0.47;;;;;;;;;;5008512;28;20372;-72
2021/07/16 00:20:16;;;;;;;1.17;0.75;;;;;;;;;;5009990;28;20045;-72
2021/07/16 00:22:41;;;;;;;2.58;0.82;;;;;;;;;;5009762;28;20384;-72
2021/07/16 00:25:08;;;;;;;0.75;0.38;;;;;;;;;;5009351;28;20038;-72
2021/07/16 00:27:33;;;;;;;1.95;0.45;;;;;;;;;;5009983;28;20029;-72
2021/07/16 00:29:59;;;;;;;1.20;0.68;;;;;;;;;;5011571;28;20080;-72
2021/07/16 00:32:24;;;;;;;2.42;0.50;;;;;;;;;;5009406;28;20046;-73
2021/07/16 00:34:50;;;;;;;0.52;0.52;;;;;;;;;;5008087;28;20480;-72
2021/07/16 00:37:15;;;;;;;1.48;0.32;;;;;;;;;;5009374;28;20073;-72
2021/07/16 00:39:40;;;;;;;0.80;0.40;;;;;;;;;;5007700;28;20014;-71
2021/07/16 00:42:07;;;;;;;2.33;0.50;;;;;;;;;;5011769;28;20029;-73
2021/07/16 00:44:36;;;;;;;2.83;0.40;;;;;;;;;;5007726;28;20495;-73
2021/07/16 00:47:02;;;;;;;1.08;0.40;;;;;;;;;;5007697;28;20570;-70
2021/07/16 00:49:28;;;;;;;1.17;0.50;;;;;;;;;;5009021;28;20045;-73
2021/07/16 00:51:53;;;;;;;0.40;0.40;;;;;;;;;;5008128;28;20125;-70
2021/07/16 00:54:19;;;;;;;1.38;0.60;;;;;;;;;;5013897;28;20108;-72
2021/07/16 00:56:44;;;;;;;2.78;0.45;;;;;;;;;;5028457;28;20033;-72
2021/07/16 00:59:14;;;;;;;2.03;0.40;;;;;;;;;;5028695;28;20042;-71
2021/07/16 01:01:40;;;;;;;4.13;0.75;;;;;;;;;;5028298;28;20049;-71
2021/07/16 01:04:05;;;;;;;1.13;0.47;;;;;;;;;;5027019;28;20037;-73
2021/07/16 01:06:30;;;;;;;1.45;0.65;;;;;;;;;;5028836;28;20119;-73
2021/07/16 01:08:55;;;;;;;1.55;0.60;;;;;;;;;;5025596;28;20174;-70
2021/07/16 01:11:20;;;;;;;1.02;0.60;;;;;;;;;;5008749;28;20034;-72
2021/07/16 01:13:46;;;;;;;1.15;0.30;;;;;;;;;;5007108;28;20119;-71
2021/07/16 01:16:11;;;;;;;1.58;0.50;;;;;;;;;;5007405;28;20514;-71
2021/07/16 01:18:36;;;;;;;0.80;0.47;;;;;;;;;;5008865;28;20014;-70
2021/07/16 01:21:03;;;;;;;0.57;0.50;;;;;;;;;;5010923;28;20018;-70
2021/07/16 01:23:29;;;;;;;2.20;0.57;;;;;;;;;;5007928;28;20052;-70
2021/07/16 01:25:54;;;;;;;0.82;0.60;;;;;;;;;;5016606;28;20041;-71
2021/07/16 01:28:20;;;;;;;1.05;0.40;;;;;;;;;;5008921;28;20034;-70
2021/07/16 01:30:46;;;;;;;0.73;0.38;;;;;;;;;;5008984;28;20108;-70
2021/07/16 01:33:13;;;;;;;1.75;0.55;;;;;;;;;;5010622;28;20044;-70
2021/07/16 01:35:38;;;;;;;1.58;0.52;;;;;;;;;;5008672;28;20511;-71
2021/07/16 01:38:03;;;;;;;0.70;0.40;;;;;;;;;;5007381;28;20037;-70
2021/07/16 01:40:32;;;;;;;0.50;0.43;;;;;;;;;;5007903;28;20030;-70
2021/07/16 01:42:58;;;;;;;1.80;0.55;;;;;;;;;;5008331;28;20022;-70
2021/07/16 01:45:27;;;;;;;1.27;0.32;;;;;;;;;;5010697;28;20025;-71
2021/07/16 01:47:55;;;;;;;1.50;0.35;;;;;;;;;;5007992;28;20037;-71
2021/07/16 01:50:21;;;;;;;2.60;0.40;;;;;;;;;;5008701;28;20404;-71
2021/07/16 01:52:46;;;;;;;3.47;0.60;;;;;;;;;;5008189;28;20037;-71
2021/07/16 01:55:13;;;;;;;0.57;0.45;;;;;;;;;;5007807;28;20037;-71
2021/07/16 01:57:38;;;;;;;3.85;0.60;;;;;;;;;;5007167;28;20037;-70
2021/07/16 02:00:13;;;;;;;1.27;0.70;;;;;;;;;;5009245;28;20026;-71
2021/07/16 02:02:52;;;;;;;0.30;0.30;;;;;;;;;;5007886;28;20061;-74
2021/07/16 02:05:18;;;;;;;0.50;0.50;;;;;;;;;;5006873;28;20041;-72
2021/07/16 02:07:44;;;;;;;0.82;0.55;;;;;;;;;;5008255;28;20034;-72
2021/07/16 02:10:10;;;;;;;2.78;0.50;;;;;;;;;;5006234;28;20029;-72
2021/07/16 02:12:35;;;;;;;2.97;0.50;;;;;;;;;;5006944;28;20133;-72
2021/07/16 02:15:03;;;;;;;2.03;0.60;;;;;;;;;;5013044;28;20100;-72
2021/07/16 02:17:28;;;;;;;2.35;0.45;;;;;;;;;;5011929;28;20050;-73
2021/07/16 02:19:54;;;;;;;2.42;0.45;;;;;;;;;;5012084;28;20034;-72
2021/07/16 02:22:19;;;;;;;0.97;0.40;;;;;;;;;;5011598;28;20498;-72
2021/07/16 02:24:44;;;;;;;2.40;0.47;;;;;;;;;;5011419;28;20280;-73
2021/07/16 02:27:09;;;;;;;1.23;0.38;;;;;;;;;;5025348;28;20350;-72
2021/07/16 02:29:35;;;;;;;0.60;0.35;;;;;;;;;;5030117;28;20037;-72
2021/07/16 02:32:01;;;;;;;1.77;0.43;;;;;;;;;;5031416;28;20041;-71
2021/07/16 02:34:30;;;;;;;1.83;0.40;;;;;;;;;;5031004;28;20026;-72
2021/07/16 02:36:55;;;;;;;0.40;0.40;;;;;;;;;;5031168;28;20045;-72
2021/07/16 02:39:20;;;;;;;2.88;0.40;;;;;;;;;;5028049;28;20483;-72
2021/07/16 02:41:45;;;;;;;1.10;0.47;;;;;;;;;;5009917;28;20076;-72
2021/07/16 02:44:10;;;;;;;1.50;0.50;;;;;;;;;;5010800;28;20037;-72
2021/07/16 02:46:36;;;;;;;3.40;0.60;;;;;;;;;;5011200;28;20688;-72
2021/07/16 02:49:01;;;;;;;0.47;0.40;;;;;;;;;;5011517;28;20392;-72
2021/07/16 02:51:26;;;;;;;0.50;0.50;;;;;;;;;;5013485;28;20029;-72
2021/07/16 02:53:51;;;;;;;4.55;0.50;;;;;;;;;;5010644;28;20045;-72
2021/07/16 02:56:17;;;;;;;1.45;0.63;;;;;;;;;;5015737;28;20053;-71
2021/07/16 02:58:42;;;;;;;1.00;0.40;;;;;;;;;;5030906;28;20022;-72
2021/07/16 03:01:07;;;;;;;0.63;0.32;;;;;;;;;;5029625;28;20586;-72
2021/07/16 03:03:32;;;;;;;0.68;0.40;;;;;;;;;;5030428;28;20049;-72
2021/07/16 03:05:57;;;;;;;2.50;0.43;;;;;;;;;;5032613;28;20026;-72
2021/07/16 03:08:23;;;;;;;0.63;0.55;;;;;;;;;;5030755;28;20038;-72
2021/07/16 03:10:48;;;;;;;1.45;0.45;;;;;;;;;;5013364;28;20519;-72
2021/07/16 03:13:15;;;;;;;2.20;0.47;;;;;;;;;;5010299;28;20500;-73
2021/07/16 03:15:40;;;;;;;0.73;0.28;;;;;;;;;;5010939;28;20052;-72
2021/07/16 03:18:06;;;;;;;0.60;0.40;;;;;;;;;;5012769;28;20507;-72
2021/07/16 03:20:41;;;;;;;1.42;0.40;;;;;;;;;;5010775;28;20042;-72
2021/07/16 03:23:07;;;;;;;0.75;0.40;;;;;;;;;;5010459;28;20053;-72
2021/07/16 03:25:32;;;;;;;0.43;0.43;;;;;;;;;;5009807;28;20068;-72
2021/07/16 03:27:58;;;;;;;0.73;0.50;;;;;;;;;;5009211;28;20034;-72
2021/07/16 03:30:25;;;;;;;1.42;0.80;;;;;;;;;;5012977;28;20028;-72
2021/07/16 03:32:50;;;;;;;0.93;0.50;;;;;;;;;;5010332;28;20527;-73
2021/07/16 03:35:16;;;;;;;0.85;0.60;;;;;;;;;;5010630;28;20037;-72
2021/07/16 03:37:42;;;;;;;1.67;0.45;;;;;;;;;;5009079;28;20076;-72
2021/07/16 03:40:11;;;;;;;5.28;0.60;;;;;;;;;;5009846;28;20030;-71
2021/07/16 03:42:37;;;;;;;2.10;0.85;;;;;;;;;;5009449;28;20538;-72
2021/07/16 03:45:05;;;;;;;0.30;0.30;;;;;;;;;;5013308;28;20014;-73
2021/07/16 03:47:30;;;;;;;0.73;0.38;;;;;;;;;;5009481;28;20052;-71
2021/07/16 03:49:57;;;;;;;1.85;0.40;;;;;;;;;;5009563;28;20041;-72
2021/07/16 03:52:22;;;;;;;1.00;0.40;;;;;;;;;;5010717;28;20026;-73
2021/07/16 03:54:49;;;;;;;0.43;0.43;;;;;;;;;;5010366;28;20495;-72
2021/07/16 03:57:14;;;;;;;1.33;0.32;;;;;;;;;;5016546;28;20017;-72
2021/07/16 03:59:39;;;;;;;3.00;0.50;;;;;;;;;;5030187;28;20025;-73
2021/07/16 04:02:05;;;;;;;1.98;0.93;;;;;;;;;;5030182;28;20549;-73
2021/07/16 04:04:32;;;;;;;1.15;0.40;;;;;;;;;;5030260;28;20026;-72
2021/07/16 04:06:58;;;;;;;1.13;0.50;;;;;;;;;;5030389;28;20029;-72
2021/07/16 04:09:27;;;;;;;0.85;0.30;;;;;;;;;;5029938;28;20518;-72
2021/07/16 04:12:08;;;;;;;0.88;0.22;;;;;;;;;;5009709;28;20058;-72
2021/07/16 04:14:34;;;;;;;1.87;0.33;;;;;;;;;;5009718;28;20499;-72
2021/07/16 04:16:59;;;;;;;2.35;0.50;;;;;;;;;;5009558;28;20125;-73
2021/07/16 04:19:24;;;;;;;2.97;0.50;;;;;;;;;;5009643;28;20051;-72
2021/07/16 04:21:49;;;;;;;1.75;0.52;;;;;;;;;;5009508;28;20041;-73
2021/07/16 04:24:15;;;;;;;0.40;0.40;;;;;;;;;;5010821;28;20030;-72
2021/07/16 04:26:40;;;;;;;1.33;0.53;;;;;;;;;;5009102;28;20296;-72
2021/07/16 04:29:05;;;;;;;0.50;0.50;;;;;;;;;;5009587;28;20261;-72
2021/07/16 04:31:31;;;;;;;1.05;0.70;;;;;;;;;;5009612;28;20038;-72
2021/07/16 04:33:56;;;;;;;3.00;0.80;;;;;;;;;;5009169;28;20034;-72
2021/07/16 04:36:21;;;;;;;1.93;0.90;;;;;;;;;;5009135;28;20084;-73
2021/07/16 04:38:46;;;;;;;0.73;0.60;;;;;;;;;;5007708;28;20273;-72
2021/07/16 04:41:11;;;;;;;2.63;0.90;;;;;;;;;;5008846;28;20030;-72
2021/07/16 04:43:37;;;;;;;0.80;0.63;;;;;;;;;;5008520;28;20273;-72
2021/07/16 04:46:02;;;;;;;1.20;0.73;;;;;;;;;;5007962;28;20269;-72
2021/07/16 04:48:27;;;;;;;0.80;0.60;;;;;;;;;;5011232;28;20803;-72
2021/07/16 04:50:52;;;;;;;0.80;0.60;;;;;;;;;;5009413;28;20037;-73
2021/07/16 04:53:17;;;;;;;0.55;0.47;;;;;;;;;;5007382;28;20037;-72
2021/07/16 04:55:43;;;;;;;3.13;0.52;;;;;;;;;;5008704;28;20062;-72
2021/07/16 04:58:08;;;;;;;0.30;0.30;;;;;;;;;;5009003;28;20406;-72
2021/07/16 05:00:33;;;;;;;0.60;0.40;;;;;;;;;;5008831;28;20324;-72
2021/07/16 05:02:59;;;;;;;0.85;0.40;;;;;;;;;;5010627;28;20524;-72
2021/07/16 05:05:24;;;;;;;2.03;0.52;;;;;;;;;;5007297;28;20472;-72
2021/07/16 05:07:49;;;;;;;1.52;0.45;;;;;;;;;;5007671;28;20619;-72
2021/07/16 05:10:14;;;;;;;1.17;0.70;;;;;;;;;;5008927;28;20447;-73
2021/07/16 05:12:40;;;;;;;0.75;0.60;;;;;;;;;;5023099;28;20264;-73
2021/07/16 05:15:06;;;;;;;0.68;0.40;;;;;;;;;;5030730;28;20079;-72
2021/07/16 05:17:31;;;;;;;0.40;0.40;;;;;;;;;;5027249;28;20099;-72
2021/07/16 05:19:56;;;;;;;0.50;0.43;;;;;;;;;;5028400;28;20479;-72
2021/07/16 05:22:21;;;;;;;1.90;0.50;;;;;;;;;;5027821;28;20052;-72
2021/07/16 05:24:47;;;;;;;1.83;0.40;;;;;;;;;;5025616;28;20260;-73
2021/07/16 05:27:12;;;;;;;1.33;0.50;;;;;;;;;;5010135;28;20055;-71
2021/07/16 05:29:37;;;;;;;0.40;0.40;;;;;;;;;;5008993;28;20770;-71
2021/07/16 05:32:02;;;;;;;1.90;0.40;;;;;;;;;;5008401;28;20304;-71
2021/07/16 05:34:28;;;;;;;3.17;0.52;;;;;;;;;;5008360;28;20491;-71
2021/07/16 05:36:53;;;;;;;0.73;0.50;;;;;;;;;;5008399;28;20038;-70
2021/07/16 05:39:18;;;;;;;1.00;0.43;;;;;;;;;;5010363;28;20014;-70
2021/07/16 05:41:43;;;;;;;0.43;0.40;;;;;;;;;;5008201;28;20041;-71
2021/07/16 05:44:09;;;;;;;2.42;0.70;;;;;;;;;;4988476;28;20046;-71
2021/07/16 05:46:34;;;;;;;1.63;0.50;;;;;;;;;;4989237;28;20376;-71
2021/07/16 05:48:59;;;;;;;1.15;0.70;;;;;;;;;;4992636;28;20262;-71
2021/07/16 05:51:24;;;;;;;0.43;0.43;;;;;;;;;;4994843;28;20023;-71
2021/07/16 05:53:50;;;;;;;1.08;0.50;;;;;;;;;;4991949;28;20034;-71
2021/07/16 05:56:15;;;;;;;1.80;0.80;;;;;;;;;;5003454;28;20383;-71
2021/07/16 05:58:40;;;;;;;6.18;0.70;;;;;;;;;;5011887;28;20782;-71
2021/07/16 06:01:05;;;;;;;1.95;0.40;;;;;;;;;;5012224;28;20387;-71
2021/07/16 06:03:30;;;;;;;0.40;0.40;;;;;;;;;;5013780;28;20045;-71
2021/07/16 06:05:56;;;;;;;1.43;1.00;;;;;;;;;;5012070;28;20096;-71
2021/07/16 06:08:21;;;;;;;0.60;0.40;;;;;;;;;;5010107;28;20766;-71
2021/07/16 06:10:46;;;;;;;0.75;0.60;;;;;;;;;;5012108;28;20140;-71
2021/07/16 06:13:11;;;;;;;1.40;0.87;;;;;;;;;;5011447;28;20672;-71
2021/07/16 06:15:37;;;;;;;1.27;0.80;;;;;;;;;;5012231;28;20296;-71
2021/07/16 06:18:02;;;;;;;0.77;0.77;;;;;;;;;;5013966;28;20405;-71
2021/07/16 06:20:28;;;;;;;1.55;0.88;;;;;;;;;;5011918;28;20281;-70
2021/07/16 06:22:53;;;;;;;1.55;1.25;;;;;;;;;;5011415;28;20038;-72
2021/07/16 06:25:18;;;;;;;3.33;1.07;;;;;;;;;;5011526;28;20037;-71
2021/07/16 06:27:44;;;;;;;1.90;1.00;;;;;;;;;;5011652;28;20372;-71
2021/07/16 06:30:10;;;;;;;1.20;0.88;;;;;;;;;;5012612;28;20017;-72
2021/07/16 06:32:35;;;;;;;3.75;1.20;;;;;;;;;;5011389;28;20086;-71
2021/07/16 06:35:01;;;;;;;2.30;1.63;;;;;;;;;;5011711;28;20076;-72
2021/07/16 06:37:26;;;;;;;3.17;1.30;;;;;;;;;;5024976;23;20042;-69
2021/07/16 06:39:51;;;;;;;1.63;1.17;;;;;;;;;;5011107;28;20030;-69
2021/07/16 06:42:17;;;;;;;2.57;1.17;;;;;;;;;;5012754;28;20277;-70
2021/07/16 06:44:42;;;;;;;2.38;1.30;;;;;;;;;;5010069;28;20262;-69
2021/07/16 06:47:07;;;;;;;2.17;1.00;;;;;;;;;;5009985;28;20049;-69
2021/07/16 06:49:32;;;;;;;2.22;0.80;;;;;;;;;;5011572;28;20273;-70
2021/07/16 06:51:58;;;;;;;7.53;1.40;;;;;;;;;;5011090;28;20037;-69
2021/07/16 06:54:26;;;;;;;2.47;1.35;;;;;;;;;;5012896;28;20049;-69
2021/07/16 06:56:52;;;;;;;1.33;1.00;;;;;;;;;;5010534;28;20061;-69
2021/07/16 06:59:17;;;;;;;4.78;1.00;;;;;;;;;;5010098;28;20073;-70
2021/07/16 07:01:42;;;;;;;1.00;1.00;;;;;;;;;;5026284;28;20034;-70
2021/07/16 07:04:08;;;;;;;2.13;1.48;;;;;;;;;;5009330;28;20030;-70
2021/07/16 07:06:33;;;;;;;1.88;1.40;;;;;;;;;;5010832;28;20487;-70
2021/07/16 07:08:58;;;;;;;1.80;1.35;;;;;;;;;;5013057;28;20349;-70
2021/07/16 07:11:23;;;;;;;2.87;1.60;;;;;;;;;;5010641;28;20026;-69
2021/07/16 07:13:49;;;;;;;1.70;1.30;;;;;;;;;;5010387;28;20265;-69
2021/07/16 07:16:16;;;;;;;2.50;1.50;;;;;;;;;;5010655;28;20269;-69
2021/07/16 07:18:41;;;;;;;1.15;1.05;;;;;;;;;;5010821;28;20022;-70
2021/07/16 07:21:06;;;;;;;4.93;1.20;;;;;;;;;;5012619;28;20028;-69
2021/07/16 07:23:32;;;;;;;2.45;1.20;;;;;;;;;;5010094;28;20117;-70
2021/07/16 07:25:57;;;;;;;1.40;1.20;;;;;;;;;;5010047;28;20085;-70
2021/07/16 07:28:22;;;;;;;1.70;1.40;;;;;;;;;;5010480;28;20314;-70
2021/07/16 07:30:47;;;;;;;2.47;1.30;;;;;;;;;;5010720;28;20315;-70
2021/07/16 07:33:12;;;;;;;3.60;1.55;;;;;;;;;;5012544;28;20740;-70
2021/07/16 07:35:38;;;;;;;1.40;1.27;;;;;;;;;;5010646;28;20132;-70
2021/07/16 07:38:04;;;;;;;1.30;1.20;;;;;;;;;;5010257;28;20447;-69
2021/07/16 07:40:29;;;;;;;1.00;1.00;;;;;;;;;;5009966;28;20293;-70
2021/07/16 07:42:55;;;;;;;3.10;1.17;;;;;;;;;;5009750;28;20034;-70
2021/07/16 07:45:20;;;;;;;2.72;1.20;;;;;;;;;;5012190;28;20084;-70
2021/07/16 07:47:47;;;;;;;2.47;1.40;;;;;;;;;;5008948;28;20050;-70
2021/07/16 07:50:14;;;;;;;1.23;1.17;;;;;;;;;;5010076;28;20124;-70
2021/07/16 07:52:39;;;;;;;1.70;1.40;;;;;;;;;;5009659;28;20022;-70
2021/07/16 07:55:05;;;;;;;2.60;1.30;;;;;;;;;;5010163;28;20029;-71
2021/07/16 07:57:30;;;;;;;1.17;1.08;;;;;;;;;;5011529;28;20021;-70
2021/07/16 07:59:55;;;;;;;1.50;1.40;;;;;;;;;;5025151;28;20038;-69
2021/07/16 08:02:21;;;;;;;0.80;0.80;;;;;;;;;;5009516;28;20280;-70
2021/07/16 08:04:46;;;;;;;1.05;1.00;;;;;;;;;;5009719;28;20030;-70
2021/07/16 08:07:11;;;;;;;1.42;0.82;;;;;;;;;;5009777;28;20403;-70
2021/07/16 08:09:38;;;;;;;1.38;0.93;;;;;;;;;;5009938;28;20052;-71
2021/07/16 08:12:03;;;;;;;2.25;0.90;;;;;;;;;;5011097;28;20029;-71
2021/07/16 08:14:29;;;;;;;1.52;1.42;;;;;;;;;;5009295;28;20038;-69
2021/07/16 08:16:54;;;;;;;2.30;0.88;;;;;;;;;;5009641;28;20034;-70
2021/07/16 08:19:19;;;;;;;3.85;1.42;;;;;;;;;;5009330;28;20084;-70
2021/07/16 08:21:48;;;;;;;1.20;0.90;;;;;;;;;;5009701;28;20018;-72
2021/07/16 08:24:14;;;;;;;1.25;0.80;;;;;;;;;;5011262;28;20033;-71
2021/07/16 08:26:39;;;;;;;0.82;0.80;;;;;;;;;;5008581;28;20034;-70
2021/07/16 08:29:05;;;;;;;1.52;0.60;;;;;;;;;;5009496;28;20026;-72
2021/07/16 08:31:30;;;;;;;3.05;0.80;;;;;;;;;;5009567;28;20037;-70
2021/07/16 08:33:55;;;;;;;0.93;0.60;;;;;;;;;;5008975;28;20065;-70
2021/07/16 08:36:21;;;;;;;2.15;0.80;;;;;;;;;;5010026;28;20033;-71
2021/07/16 08:38:46;;;;;;;1.70;0.70;;;;;;;;;;5009393;28;20049;-72
2021/07/16 08:41:11;;;;;;;1.65;0.90;;;;;;;;;;5009099;28;20080;-70
2021/07/16 08:43:40;;;;;;;0.77;0.70;;;;;;;;;;5007593;28;20038;-71
2021/07/16 08:46:05;;;;;;;1.10;0.65;;;;;;;;;;5009178;28;20403;-71
2021/07/16 08:48:31;;;;;;;1.03;0.80;;;;;;;;;;5011232;28;20032;-71
2021/07/16 08:50:57;;;;;;;1.17;0.50;;;;;;;;;;5009363;28;20280;-71
2021/07/16 08:53:23;;;;;;;0.60;0.55;;;;;;;;;;5008528;28;20360;-72
2021/07/16 08:55:48;;;;;;;0.85;0.57;;;;;;;;;;5008796;28;20053;-69
2021/07/16 08:58:14;;;;;;;1.27;0.55;;;;;;;;;;5009061;28;20041;-71
2021/07/16 09:00:39;;;;;;;0.88;0.50;;;;;;;;;;5007714;28;20017;-70
2021/07/16 09:03:05;;;;;;;0.70;0.70;;;;;;;;;;5010734;28;20022;-70
2021/07/16 09:05:48;;;;;;;0.50;0.45;;;;;;;;;;5007396;28;20273;-72
2021/07/16 09:08:20;;;;;;;0.50;0.50;;;;;;;;;;5007613;28;20435;-70
2021/07/16 09:10:50;;;;;;;4.13;0.75;;;;;;;;;;5008409;28;20030;-71
2021/07/16 09:13:17;;;;;;;1.60;0.55;;;;;;;;;;5008239;28;20038;-71
2021/07/16 09:15:46;;;;;;;1.30;0.50;;;;;;;;;;5008775;28;20064;-71
2021/07/16 09:18:12;;;;;;;0.55;0.47;;;;;;;;;;5010571;28;20017;-71
2021/07/16 09:20:38;;;;;;;0.50;0.50;;;;;;;;;;5008745;28;20046;-70
2021/07/16 09:23:08;;;;;;;0.45;0.45;;;;;;;;;;5007834;28;20391;-70
2021/07/16 09:25:34;;;;;;;2.33;0.40;;;;;;;;;;5008785;28;20091;-71
2021/07/16 09:27:59;;;;;;;2.83;0.60;;;;;;;;;;5008217;28;20121;-71
2021/07/16 09:30:25;;;;;;;0.77;0.57;;;;;;;;;;5010565;28;20289;-71
2021/07/16 09:32:55;;;;;;;0.40;0.40;;;;;;;;;;5008081;28;20550;-71
2021/07/16 09:35:32;;;;;;;0.50;0.40;;;;;;;;;;5008478;28;20044;-72
2021/07/16 09:37:59;;;;;;;2.63;0.60;;;;;;;;;;5008626;28;20121;-72
2021/07/16 09:40:32;;;;;;;1.55;0.63;;;;;;;;;;5008598;28;20038;-71
2021/07/16 09:43:01;;;;;;;1.10;0.45;;;;;;;;;;5023108;28;20033;-71
2021/07/16 09:45:27;;;;;;;0.73;0.63;;;;;;;;;;5010585;28;20076;-72
2021/07/16 09:47:52;;;;;;;2.15;0.45;;;;;;;;;;5008375;28;20445;-71
2021/07/16 09:50:20;;;;;;;0.40;0.40;;;;;;;;;;5008607;28;20099;-71
2021/07/16 09:52:46;;;;;;;0.55;0.55;;;;;;;;;;5006789;28;20026;-71
2021/07/16 09:55:14;;;;;;;0.93;0.40;;;;;;;;;;5008399;28;20377;-70
2021/07/16 09:57:46;;;;;;;1.95;0.60;;;;;;;;;;5006404;28;20037;-70
2021/07/16 10:00:25;;;;;;;0.60;0.60;;;;;;;;;;5010355;28;20055;-70
2021/07/16 10:02:51;;;;;;;0.63;0.60;;;;;;;;;;5007913;28;20084;-70
2021/07/16 10:05:16;;;;;;;0.70;0.70;;;;;;;;;;5008424;28;20038;-70
2021/07/16 10:07:43;;;;;;;1.92;0.52;;;;;;;;;;5008053;28;20030;-70
2021/07/16 10:10:13;;;;;;;0.60;0.60;;;;;;;;;;5023110;28;20057;-70
2021/07/16 10:12:39;;;;;;;1.88;0.40;;;;;;;;;;5007170;28;20010;-70
2021/07/16 10:15:05;;;;;;;1.05;0.50;;;;;;;;;;5010114;28;20030;-69
2021/07/16 10:17:30;;;;;;;0.60;0.50;;;;;;;;;;5006535;28;20038;-69
2021/07/16 10:19:55;;;;;;;0.45;0.45;;;;;;;;;;5006786;28;20048;-70
2021/07/16 10:22:21;;;;;;;0.60;0.57;;;;;;;;;;5022893;28;20034;-71
2021/07/16 10:24:46;;;;;;;0.47;0.45;;;;;;;;;;5006867;28;20261;-71
2021/07/16 10:27:12;;;;;;;1.02;0.50;;;;;;;;;;5009407;28;20061;-69
2021/07/16 10:29:39;;;;;;;1.02;0.50;;;;;;;;;;5007736;28;20117;-69
2021/07/16 10:32:05;;;;;;;0.73;0.57;;;;;;;;;;5008057;28;20482;-69
2021/07/16 10:34:32;;;;;;;1.45;0.50;;;;;;;;;;5009422;28;20053;-69
2021/07/16 10:36:58;;;;;;;0.40;0.40;;;;;;;;;;5011506;28;20030;-69
2021/07/16 10:39:43;;;;;;;0.77;0.40;;;;;;;;;;5013454;28;20079;-70
2021/07/16 10:42:37;;;;;;;0.63;0.52;;;;;;;;;;5011235;28;20141;-70
2021/07/16 10:45:05;;;;;;;0.40;0.40;;;;;;;;;;5006587;28;20034;-70
2021/07/16 10:47:33;;;;;;;1.95;0.30;;;;;;;;;;5009785;28;20049;-70
2021/07/16 10:49:59;;;;;;;0.35;0.30;;;;;;;;;;5011313;28;20509;-71
2021/07/16 10:52:40;;;;;;;0.32;0.30;;;;;;;;;;5009625;28;20113;-70
2021/07/16 10:55:05;;;;;;;0.73;0.40;;;;;;;;;;5011154;28;20029;-71
2021/07/16 10:57:38;;;;;;;0.57;0.32;;;;;;;;;;5012558;28;20101;-70
2021/07/16 11:00:03;;;;;;;0.40;0.40;;;;;;;;;;5011046;28;20038;-70
2021/07/16 11:02:55;;;;;;;0.68;0.47;;;;;;;;;;5010506;28;20057;-70
2021/07/16 11:05:33;;;;;;;0.77;0.38;;;;;;;;;;5006720;28;20040;-71
2021/07/16 11:07:59;;;;;;;0.85;0.30;;;;;;;;;;5009384;28;20042;-71
2021/07/16 11:10:42;;;;;;;0.73;0.40;;;;;;;;;;5009351;28;20029;-70
2021/07/16 11:13:26;;;;;;;1.88;0.55;;;;;;;;;;5008779;28;20038;-70
2021/07/16 11:15:51;;;;;;;0.40;0.35;;;;;;;;;;5010650;28;20029;-70
2021/07/16 11:18:27;;;;;;;0.40;0.40;;;;;;;;;;5012402;28;20033;-72
2021/07/16 11:20:52;;;;;;;0.85;0.60;;;;;;;;;;5010395;28;20261;-71
2021/07/16 11:23:19;;;;;;;1.25;0.60;;;;;;;;;;5010013;28;20042;-70
2021/07/16 11:25:45;;;;;;;0.57;0.30;;;;;;;;;;5009978;28;20476;-70
2021/07/16 11:28:10;;;;;;;0.30;0.30;;;;;;;;;;5009542;28;20108;-70
2021/07/16 11:30:36;;;;;;;1.08;0.38;;;;;;;;;;5011023;28;20105;-70
2021/07/16 11:33:02;;;;;;;0.20;0.20;;;;;;;;;;5010077;28;20054;-70
2021/07/16 11:35:27;;;;;;;0.57;0.40;;;;;;;;;;5010365;28;20033;-70
2021/07/16 11:37:52;;;;;;;0.55;0.45;;;;;;;;;;5009992;28;20137;-70
2021/07/16 11:40:19;;;;;;;0.40;0.38;;;;;;;;;;5010115;28;20109;-71
2021/07/16 11:42:55;;;;;;;0.88;0.50;;;;;;;;;;5009373;28;20104;-71
2021/07/16 11:45:30;;;;;;;1.33;0.50;;;;;;;;;;5011239;28;20068;-71
2021/07/16 11:47:56;;;;;;;0.95;0.40;;;;;;;;;;5009691;28;20046;-70
2021/07/16 11:50:21;;;;;;;0.45;0.45;;;;;;;;;;5009891;28;20049;-71
2021/07/16 11:52:47;;;;;;;1.88;0.52;;;;;;;;;;5008448;28;20034;-72
2021/07/16 11:55:14;;;;;;;0.85;0.80;;;;;;;;;;5009713;28;20491;-71
2021/07/16 11:58:00;;;;;;;0.57;0.50;;;;;;;;;;5009076;28;20098;-72
2021/07/16 12:00:26;;;;;;;1.60;0.47;;;;;;;;;;5011019;28;20080;-71
2021/07/16 12:03:04;;;;;;;0.47;0.25;;;;;;;;;;5009223;28;20053;-71
2021/07/16 12:05:30;;;;;;;0.40;0.40;;;;;;;;;;5007929;28;20364;-72
2021/07/16 12:07:56;;;;;;;0.40;0.40;;;;;;;;;;5009536;28;20096;-70
2021/07/16 12:10:21;;;;;;;1.80;0.50;;;;;;;;;;5009480;28;20045;-73
2021/07/16 12:12:47;;;;;;;0.28;0.20;;;;;;;;;;5008301;28;20058;-72
2021/07/16 12:15:19;;;;;;;0.52;0.30;;;;;;;;;;5011470;28;20017;-71
2021/07/16 12:18:01;;;;;;;0.68;0.57;;;;;;;;;;5009347;28;20046;-71
2021/07/16 12:20:29;;;;;;;0.63;0.30;;;;;;;;;;5008004;28;20041;-71
2021/07/16 12:22:54;;;;;;;0.50;0.40;;;;;;;;;;5008971;28;20522;-70
2021/07/16 12:25:20;;;;;;;1.88;0.55;;;;;;;;;;5008696;28;20061;-71
2021/07/16 12:27:45;;;;;;;1.90;0.50;;;;;;;;;;5008584;28;20030;-71
2021/07/16 12:30:11;;;;;;;0.40;0.40;;;;;;;;;;5011377;28;20029;-71
2021/07/16 12:32:41;;;;;;;1.52;0.70;;;;;;;;;;5008948;28;20284;-71
2021/07/16 12:35:12;;;;;;;0.88;0.60;;;;;;;;;;5009119;28;20038;-71
2021/07/16 12:37:37;;;;;;;1.38;0.50;;;;;;;;;;5009391;28;20038;-71
2021/07/16 12:40:04;;;;;;;1.25;0.63;;;;;;;;;;5009103;28;20057;-71
2021/07/16 12:42:29;;;;;;;1.15;0.47;;;;;;;;;;5010439;28;20084;-72
2021/07/16 12:45:04;;;;;;;1.00;0.60;;;;;;;;;;5007554;28;20061;-72
2021/07/16 12:47:29;;;;;;;1.20;0.50;;;;;;;;;;5007665;28;20499;-70
2021/07/16 12:50:11;;;;;;;0.60;0.60;;;;;;;;;;5009028;28;20110;-71
2021/07/16 12:52:36;;;;;;;2.67;0.47;;;;;;;;;;5008407;28;20034;-71
2021/07/16 12:55:11;;;;;;;1.23;0.60;;;;;;;;;;5009060;28;20045;-71
2021/07/16 12:57:36;;;;;;;1.98;0.63;;;;;;;;;;5010514;28;20018;-71
2021/07/16 13:00:12;;;;;;;2.38;0.73;;;;;;;;;;5008885;28;20674;-72
2021/07/16 13:02:37;;;;;;;1.75;0.60;;;;;;;;;;5008663;28;20045;-70
2021/07/16 13:05:02;;;;;;;2.37;0.60;;;;;;;;;;5008364;28;20030;-71
2021/07/16 13:07:27;;;;;;;1.70;0.65;;;;;;;;;;5009000;28;20277;-71
2021/07/16 13:09:53;;;;;;;2.60;0.70;;;;;;;;;;5008633;28;20125;-71
2021/07/16 13:12:18;;;;;;;0.85;0.60;;;;;;;;;;5009907;28;20044;-71
2021/07/16 13:14:54;;;;;;;0.75;0.68;;;;;;;;;;5007521;28;20088;-71
2021/07/16 13:17:36;;;;;;;0.98;0.63;;;;;;;;;;5008727;28;20124;-71
2021/07/16 13:20:10;;;;;;;0.57;0.50;;;;;;;;;;5008808;28;20091;-71
2021/07/16 13:22:39;;;;;;;2.08;0.70;;;;;;;;;;5008292;28;20097;-70
2021/07/16 13:25:07;;;;;;;1.08;0.70;;;;;;;;;;5023701;28;20030;-70
2021/07/16 13:27:32;;;;;;;0.98;0.50;;;;;;;;;;5010110;28;20033;-71
2021/07/16 13:29:57;;;;;;;1.27;0.80;;;;;;;;;;5007050;28;20431;-70
2021/07/16 13:32:23;;;;;;;0.98;0.60;;;;;;;;;;5008000;28;20034;-71
2021/07/16 13:34:48;;;;;;;2.55;0.55;;;;;;;;;;5008337;28;20034;-70
2021/07/16 13:37:13;;;;;;;1.90;0.57;;;;;;;;;;5008470;28;20373;-71
2021/07/16 13:39:39;;;;;;;3.03;0.75;;;;;;;;;;5008328;28;20072;-71
2021/07/16 13:42:04;;;;;;;1.42;0.50;;;;;;;;;;5010434;28;20026;-71
2021/07/16 13:44:30;;;;;;;0.95;0.40;;;;;;;;;;5007739;28;20044;-71
2021/07/16 13:46:55;;;;;;;0.63;0.50;;;;;;;;;;5008246;28;20068;-71
2021/07/16 13:49:20;;;;;;;1.10;0.40;;;;;;;;;;5008349;28;20435;-71
2021/07/16 13:51:46;;;;;;;0.45;0.45;;;;;;;;;;5023406;28;20124;-70
2021/07/16 13:54:12;;;;;;;0.70;0.50;;;;;;;;;;5009663;28;20022;-71
2021/07/16 13:56:38;;;;;;;4.85;0.60;;;;;;;;;;5008321;28;20452;-70
2021/07/16 13:59:03;;;;;;;1.20;0.50;;;;;;;;;;5007329;28;20598;-70
2021/07/16 14:01:28;;;;;;;1.42;0.38;;;;;;;;;;5006757;28;20416;-70
2021/07/16 14:03:53;;;;;;;0.50;0.40;;;;;;;;;;5007540;28;20093;-70
2021/07/16 14:06:19;;;;;;;0.37;0.37;;;;;;;;;;5009928;28;20380;-70
2021/07/16 14:08:44;;;;;;;1.27;0.40;;;;;;;;;;5009944;28;20272;-70
2021/07/16 14:11:09;;;;;;;0.33;0.33;;;;;;;;;;5012121;28;20269;-70
2021/07/16 14:13:34;;;;;;;0.47;0.40;;;;;;;;;;5010729;28;20322;-70
2021/07/16 14:15:59;;;;;;;1.17;0.40;;;;;;;;;;5011857;28;20342;-72
2021/07/16 14:18:25;;;;;;;0.50;0.43;;;;;;;;;;5013882;28;20277;-70
2021/07/16 14:20:51;;;;;;;0.33;0.33;;;;;;;;;;5010315;28;20629;-69
2021/07/16 14:23:16;;;;;;;0.40;0.40;;;;;;;;;;5010916;28;20272;-70
2021/07/16 14:25:41;;;;;;;0.30;0.30;;;;;;;;;;5011454;28;20689;-69
2021/07/16 14:28:07;;;;;;;0.47;0.47;;;;;;;;;;5009755;28;20616;-69
2021/07/16 14:30:32;;;;;;;0.30;0.30;;;;;;;;;;5013405;28;20761;-70
2021/07/16 14:32:57;;;;;;;0.40;0.40;;;;;;;;;;5011237;28;20034;-69
2021/07/16 14:35:27;;;;;;;0.40;0.40;;;;;;;;;;5011703;28;20034;-75
2021/07/16 14:37:53;;;;;;;0.50;0.32;;;;;;;;;;5010238;28;20053;-69
2021/07/16 14:40:18;;;;;;;1.48;0.52;;;;;;;;;;5026514;28;20033;-70